Time;durP1;ratioP1;P1;durP2;ratioP2;P2;SDS_P1;SDS_P2;PMS_P1;PMS_P2;Temp;Humidity;BMP_temperature;BMP_pressure;BME280_temperature;BME280_humidity;BME280_pressure;Samples;Min_cycle;Max_cycle;Signal;HPM_P1;HPM_P2
2022/09/14 00:07:04;;;;;;;53.78;43.45;;;13.90;99.90;;;;;;20726738;28;20104;-58
2022/09/14 00:17:06;;;;;;;54.00;41.58;;;13.60;99.90;;;;;;20739025;28;20557;-49
2022/09/14 00:27:10;;;;;;;71.20;52.90;;;13.40;99.90;;;;;;20731101;28;20045;-48
2022/09/14 00:37:14;;;;;;;66.43;49.25;;;13.40;99.90;;;;;;20687297;28;20103;-58
2022/09/14 00:47:18;;;;;;;68.15;51.35;;;13.30;99.90;;;;;;20749298;28;20042;-59
2022/09/14 00:57:22;;;;;;;76.05;53.55;;;13.20;99.90;;;;;;20756511;28;20125;-47
2022/09/14 01:07:43;;;;;;;57.65;45.72;;;13.20;99.90;;;;;;20716441;28;20030;-58
2022/09/14 01:18:03;;;;;;;66.90;49.28;;;13.20;99.90;;;;;;20748292;28;20099;-48
2022/09/14 01:28:21;;;;;;;;;;;13.30;99.90;;;;;;20757195;28;20521;-46
2022/09/14 01:38:43;;;;;;;53.25;42.28;;;13.40;99.90;;;;;;20730715;28;19960;-58
2022/09/14 01:49:09;;;;;;;47.92;36.38;;;13.80;99.90;;;;;;20760908;28;20074;-58
2022/09/14 01:59:21;;;;;;;51.63;39.65;;;13.80;99.90;;;;;;20746521;28;20069;-58
2022/09/14 02:09:25;;;;;;;62.13;47.85;;;13.50;99.90;;;;;;20721391;28;20360;-49
2022/09/14 02:19:33;;;;;;;58.58;45.95;;;13.40;99.90;;;;;;20716202;28;20177;-58
2022/09/14 02:29:35;;;;;;;60.67;45.03;;;13.30;99.90;;;;;;20744174;28;20368;-58
2022/09/14 02:39:50;;;;;;;65.50;47.67;;;13.20;99.90;;;;;;20725347;28;20395;-47
2022/09/14 02:50:19;;;;;;;74.25;51.75;;;13.00;99.90;;;;;;20758409;28;20050;-48
2022/09/14 03:00:22;;;;;;;72.33;52.03;;;12.90;99.90;;;;;;20734185;28;20050;-58
2022/09/14 03:10:26;;;;;;;67.40;49.53;;;12.90;99.90;;;;;;20761282;28;20058;-58
2022/09/14 03:20:31;;;;;;;69.68;48.92;;;13.00;99.90;;;;;;20742758;28;20069;-46
2022/09/14 03:30:34;;;;;;;67.05;47.10;;;12.90;99.90;;;;;;20710006;28;20490;-58
2022/09/14 03:40:38;;;;;;;71.95;49.88;;;12.90;99.90;;;;;;20741443;28;20053;-58
2022/09/14 03:50:40;;;;;;;74.20;50.35;;;12.80;99.90;;;;;;20755225;28;20092;-58
2022/09/14 04:00:43;;;;;;;73.50;50.50;;;12.70;99.90;;;;;;20736514;28;20030;-59
2022/09/14 04:10:45;;;;;;;69.38;48.58;;;12.80;99.90;;;;;;20708382;28;20085;-48
2022/09/14 04:20:57;;;;;;;59.45;45.10;;;12.90;99.90;;;;;;20767608;28;20100;-58
2022/09/14 04:31:01;;;;;;;63.30;45.08;;;13.10;99.90;;;;;;20727137;28;20386;-47
2022/09/14 04:41:09;;;;;;;51.60;38.60;;;13.20;99.90;;;;;;20779786;28;20097;-47
2022/09/14 04:51:15;;;;;;;62.28;46.22;;;13.00;99.90;;;;;;20731293;28;20042;-58
2022/09/14 05:01:21;;;;;;;67.72;47.35;;;12.90;99.90;;;;;;20783599;28;20065;-51
2022/09/14 05:11:26;;;;;;;70.32;50.30;;;12.80;99.90;;;;;;20748800;28;20561;-59
2022/09/14 05:21:32;;;;;;;68.78;49.58;;;13.00;99.90;;;;;;20754252;28;20064;-46
2022/09/14 05:31:35;;;;;;;58.83;46.35;;;13.10;99.90;;;;;;20769583;28;20041;-58
2022/09/14 05:41:37;;;;;;;63.15;48.15;;;13.20;99.90;;;;;;20734168;28;20041;-49
2022/09/14 05:51:39;;;;;;;49.38;41.40;;;13.40;99.90;;;;;;20748982;28;20102;-58
2022/09/14 06:01:42;;;;;;;42.10;37.08;;;13.60;99.90;;;;;;20737186;28;20096;-47
2022/09/14 06:11:45;;;;;;;37.72;30.52;;;14.00;99.90;;;;;;20780139;28;20116;-48
2022/09/14 06:21:47;;;;;;;28.17;25.10;;;14.70;99.90;;;;;;20740075;28;20390;-54
2022/09/14 06:31:49;;;;;;;28.05;23.83;;;15.30;99.90;;;;;;20745550;28;20038;-46
2022/09/14 06:41:52;;;;;;;26.20;21.98;;;15.70;99.90;;;;;;20725482;28;20395;-48
2022/09/14 06:51:56;;;;;;;20.63;17.13;;;16.00;99.90;;;;;;20742484;28;20499;-47
2022/09/14 07:01:59;;;;;;;20.30;15.13;;;16.60;99.90;;;;;;20742859;28;20361;-47
2022/09/14 07:12:01;;;;;;;15.13;12.98;;;17.30;99.90;;;;;;20756544;28;20490;-58
2022/09/14 07:22:03;;;;;;;14.30;8.40;;;18.40;99.90;;;;;;20726564;28;20128;-46
2022/09/14 07:32:05;;;;;;;12.23;10.13;;;19.60;99.90;;;;;;20705465;28;20042;-56
2022/09/14 07:42:08;;;;;;;13.30;10.05;;;19.90;99.90;;;;;;20767720;28;20041;-46
2022/09/14 07:52:10;;;;;;;14.98;10.30;;;19.90;99.90;;;;;;20719468;28;20045;-47
2022/09/14 08:02:13;;;;;;;13.48;9.77;;;21.60;99.90;;;;;;20721383;28;20034;-50
2022/09/14 08:12:15;;;;;;;18.15;11.02;;;20.90;99.90;;;;;;20719219;28;20101;-59
2022/09/14 08:22:17;;;;;;;14.23;10.45;;;19.70;99.90;;;;;;20719611;28;20042;-59
2022/09/14 08:32:19;;;;;;;16.13;10.60;;;19.90;99.90;;;;;;20718422;28;20033;-46
2022/09/14 08:42:24;;;;;;;9.88;7.00;;;20.30;99.90;;;;;;20715724;28;20376;-59
2022/09/14 08:52:29;;;;;;;10.30;7.35;;;20.30;99.90;;;;;;20722781;28;20402;-59
2022/09/14 09:03:09;;;;;;;26.73;9.95;;;19.40;99.90;;;;;;20727660;28;20101;-49
2022/09/14 09:13:17;;;;;;;11.50;6.75;;;18.80;99.90;;;;;;20750206;28;20026;-46
2022/09/14 09:23:22;;;;;;;13.40;6.68;;;18.60;99.90;;;;;;20741902;28;20042;-47
2022/09/14 09:33:26;;;;;;;9.10;5.30;;;18.30;99.90;;;;;;20733776;28;20038;-46
2022/09/14 09:44:02;;;;;;;18.48;6.50;;;17.90;99.90;;;;;;20714542;28;20442;-48
2022/09/14 09:54:23;;;;;;;13.98;3.58;;;17.80;99.90;;;;;;20758687;28;20487;-59
2022/09/14 10:04:28;;;;;;;24.13;5.35;;;18.30;99.90;;;;;;20719944;28;20030;-45
2022/09/14 10:14:36;;;;;;;4.95;2.45;;;19.00;99.90;;;;;;20729064;28;20093;-59
2022/09/14 10:24:38;;;;;;;7.10;1.98;;;19.30;99.90;;;;;;20746763;28;20537;-47
2022/09/14 10:34:41;;;;;;;4.30;2.22;;;19.40;99.90;;;;;;20727628;28;20082;-46
2022/09/14 10:45:02;;;;;;;22.95;4.03;;;21.10;99.90;;;;;;20726468;28;20030;-49
2022/09/14 10:55:13;;;;;;;2.90;1.00;;;22.90;99.90;;;;;;20725409;28;20042;-47
2022/09/14 11:05:37;;;;;;;20.50;5.63;;;22.80;99.90;;;;;;20741920;28;20072;-47
2022/09/14 11:15:44;;;;;;;4.63;1.10;;;22.80;99.90;;;;;;20741485;28;20033;-50
2022/09/14 11:26:09;;;;;;;1.93;1.17;;;22.60;99.90;;;;;;20723873;28;20033;-47
2022/09/14 11:36:23;;;;;;;4.40;1.35;;;22.50;99.90;;;;;;20740761;28;20387;-48
2022/09/14 11:46:35;;;;;;;7.30;1.40;;;22.90;99.90;;;;;;20724000;28;20128;-49
2022/09/14 11:56:38;;;;;;;9.05;2.35;;;22.60;99.90;;;;;;20740737;28;20518;-48
2022/09/14 12:06:43;;;;;;;6.05;1.30;;;22.40;99.90;;;;;;20739316;28;20034;-47
2022/09/14 12:17:14;;;;;;;6.18;2.17;;;22.20;99.90;;;;;;20738985;28;20030;-46
2022/09/14 12:27:22;;;;;;;9.55;5.85;;;22.10;99.90;;;;;;20738740;28;20046;-46
2022/09/14 12:37:30;;;;;;;229.15;57.78;;;22.00;99.90;;;;;;20746253;28;20136;-60
2022/09/14 12:47:34;;;;;;;150.30;42.80;;;22.20;99.90;;;;;;20754129;28;20414;-60
2022/09/14 12:58:08;;;;;;;16.00;11.30;;;22.10;99.90;;;;;;20753419;28;20045;-47
2022/09/14 13:08:15;;;;;;;12.82;8.25;;;21.10;99.90;;;;;;20752607;28;20038;-59
2022/09/14 13:18:18;;;;;;;11.48;7.93;;;21.00;99.90;;;;;;20735883;28;20089;-59
2022/09/14 13:28:20;;;;;;;10.55;9.05;;;20.50;99.90;;;;;;20750920;28;20034;-60
2022/09/14 13:38:30;;;;;;;11.70;8.07;;;20.40;99.90;;;;;;20733479;28;20093;-49
2022/09/14 13:48:34;;;;;;;12.80;9.48;;;20.20;99.90;;;;;;20747847;28;20565;-49
2022/09/14 13:58:37;;;;;;;10.23;7.40;;;20.10;99.90;;;;;;20748673;28;20478;-50
2022/09/14 14:08:39;;;;;;;11.73;7.28;;;20.00;99.90;;;;;;20731482;28;20038;-60
2022/09/14 14:18:48;;;;;;;13.40;6.78;;;20.00;99.90;;;;;;20747139;28;20042;-48
2022/09/14 14:28:50;;;;;;;14.52;8.32;;;19.60;99.90;;;;;;20745581;28;20431;-47
2022/09/14 14:38:52;;;;;;;13.02;9.90;;;19.40;99.90;;;;;;20729014;28;20026;-46
2022/09/14 14:48:55;;;;;;;13.43;11.05;;;18.90;99.90;;;;;;20744821;28;20069;-48
2022/09/14 14:58:57;;;;;;;11.90;9.85;;;18.40;99.90;;;;;;20727610;28;20099;-47
2022/09/14 15:08:59;;;;;;;11.95;7.00;;;18.10;99.90;;;;;;20726810;28;20034;-47
2022/09/14 15:19:02;;;;;;;9.82;4.90;;;18.00;99.90;;;;;;20725811;28;20108;-48
2022/09/14 15:29:05;;;;;;;9.20;7.70;;;17.90;99.90;;;;;;20742565;28;20037;-47
2022/09/14 15:39:11;;;;;;;8.32;6.40;;;18.00;99.90;;;;;;20723611;28;20117;-46
2022/09/14 15:49:17;;;;;;;7.60;6.53;;;17.40;99.90;;;;;;20740790;28;20045;-59
2022/09/14 15:59:20;;;;;;;4.72;3.35;;;17.10;99.90;;;;;;20739812;28;20128;-59
2022/09/14 16:09:23;;;;;;;6.95;4.95;;;17.10;99.90;;;;;;20729839;28;20089;-48
2022/09/14 16:19:26;;;;;;;6.55;3.10;;;17.10;99.90;;;;;;20766023;28;20093;-49
2022/09/14 16:29:29;;;;;;;7.55;3.22;;;16.90;99.90;;;;;;20749354;28;20037;-49
2022/09/14 16:39:33;;;;;;;7.88;4.47;;;17.00;99.90;;;;;;20748493;28;20085;-58
2022/09/14 16:49:38;;;;;;;6.60;4.30;;;16.90;99.90;;;;;;20765173;28;20065;-59
2022/09/14 16:59:40;;;;;;;5.53;3.90;;;16.80;99.90;;;;;;20790174;28;20038;-47
2022/09/14 17:09:43;;;;;;;12.88;3.90;;;16.70;99.90;;;;;;20747146;28;20041;-59
2022/09/14 17:19:46;;;;;;;5.75;3.13;;;16.70;99.90;;;;;;20744829;28;20058;-48
2022/09/14 17:29:48;;;;;;;3.22;2.70;;;16.70;99.90;;;;;;20750021;28;20088;-46
2022/09/14 17:39:51;;;;;;;7.00;2.42;;;16.80;99.90;;;;;;20733583;28;20030;-45
2022/09/14 17:49:55;;;;;;;6.97;2.30;;;16.80;99.90;;;;;;20748898;28;20467;-46
2022/09/14 17:59:58;;;;;;;8.05;2.65;;;16.90;99.90;;;;;;20731553;28;20053;-59
2022/09/14 18:10:01;;;;;;;13.07;3.42;;;16.80;99.90;;;;;;20747200;28;20038;-46
2022/09/14 18:20:05;;;;;;;9.63;3.58;;;16.90;99.90;;;;;;20730439;28;20100;-45
2022/09/14 18:30:08;;;;;;;7.82;3.13;;;17.00;99.90;;;;;;20746379;28;20398;-45
2022/09/14 18:40:11;;;;;;;5.50;3.17;;;17.10;99.90;;;;;;20728076;28;20038;-46
2022/09/14 18:50:14;;;;;;;6.00;2.05;;;17.00;99.90;;;;;;20779115;28;20046;-46
2022/09/14 19:00:17;;;;;;;8.27;1.90;;;17.00;99.90;;;;;;20824737;28;20398;-47
2022/09/14 19:10:20;;;;;;;8.38;2.42;;;16.80;99.90;;;;;;20823723;28;20486;-59
2022/09/14 19:20:24;;;;;;;6.38;3.33;;;17.00;99.90;;;;;;20823169;28;20107;-46
2022/09/14 19:30:26;;;;;;;7.70;2.45;;;17.00;99.90;;;;;;20822527;28;20316;-59
2022/09/14 19:40:29;;;;;;;4.45;2.03;;;17.00;99.90;;;;;;20813675;28;20088;-59
2022/09/14 19:50:32;;;;;;;4.57;2.17;;;16.90;99.90;;;;;;20793520;28;20068;-46
2022/09/14 20:00:35;;;;;;;5.70;2.47;;;16.80;99.90;;;;;;20820784;28;20383;-46
2022/09/14 20:10:37;;;;;;;7.47;2.60;;;16.70;99.90;;;;;;20821442;28;20033;-49
2022/09/14 20:20:41;;;;;;;7.18;2.58;;;16.70;99.90;;;;;;20819850;28;20104;-59
2022/09/14 20:30:43;;;;;;;7.07;2.60;;;16.60;99.90;;;;;;20786834;28;20049;-59
2022/09/14 20:40:46;;;;;;;7.68;2.13;;;16.50;99.90;;;;;;20808319;28;20038;-46
2022/09/14 20:50:52;;;;;;;4.93;1.67;;;16.40;99.90;;;;;;20721242;28;20057;-59
2022/09/14 21:01:07;;;;;;;9.07;1.92;;;16.50;99.90;;;;;;20748804;28;20046;-46
2022/09/14 21:11:15;;;;;;;7.28;1.58;;;16.50;99.90;;;;;;20752219;28;20030;-49
2022/09/14 21:21:19;;;;;;;;;;;16.70;99.90;;;;;;20734621;28;20041;-46
2022/09/14 21:31:21;;;;;;;7.63;1.73;;;16.90;99.90;;;;;;20734089;28;19913;-46
2022/09/14 21:41:26;;;;;;;6.75;1.90;;;17.00;99.90;;;;;;20716654;28;20030;-59
2022/09/14 21:51:34;;;;;;;9.38;1.88;;;17.00;99.90;;;;;;20748040;28;20116;-58
2022/09/14 22:01:37;;;;;;;11.38;2.10;;;17.00;99.90;;;;;;20730992;28;20034;-59
2022/09/14 22:11:39;;;;;;;10.57;2.13;;;17.10;99.90;;;;;;20745966;28;20096;-47
2022/09/14 22:21:43;;;;;;;8.85;2.05;;;17.20;99.90;;;;;;20745897;28;20034;-47
2022/09/14 22:31:46;;;;;;;9.90;2.10;;;17.20;99.90;;;;;;20746475;28;20123;-46
2022/09/14 22:41:49;;;;;;;11.90;2.47;;;17.00;99.90;;;;;;20744497;28;20120;-47
2022/09/14 22:51:51;;;;;;;11.35;2.15;;;16.90;99.90;;;;;;20727119;28;20369;-58
2022/09/14 23:01:54;;;;;;;10.93;2.45;;;17.00;99.90;;;;;;20726664;28;20066;-47
2022/09/14 23:11:56;;;;;;;9.23;2.10;;;17.00;99.90;;;;;;20726066;28;20120;-59
2022/09/14 23:22:00;;;;;;;12.75;2.17;;;17.00;99.90;;;;;;20724388;28;20529;-46
2022/09/14 23:32:02;;;;;;;15.75;2.38;;;17.20;99.90;;;;;;20724625;28;20029;-59
2022/09/14 23:42:06;;;;;;;7.10;1.77;;;17.00;99.90;;;;;;20740464;28;20116;-49
2022/09/14 23:52:08;;;;;;;9.55;2.55;;;17.00;99.90;;;;;;20723499;28;20053;-48
